Terminal Aerodrome Forecast
Issued by NWS Boston, MA

Home | Current Version | Previous Version | Text Only | Print | Product List | Glossary On
Versions: 1 2 3 4 5 6 7 8 9 10 11 12 13 14 15 16 17 18 19 20 21 22 23 24 25
000
FTUS41 KBOX 221128
TAFBOS
TAF
KBOS 221128Z 2212/2318 20007KT P6SM FEW250
     FM221700 21013G23KT P6SM SCT050
     FM230700 22011G19KT 6SM BR VCSH BKN035
     FM231100 24008KT P6SM VCSH BKN035
     FM231600 26007KT P6SM BKN045=

USA.gov is the U.S. government's official web portal to all federal, state and local government web resources and services.